Valders, Wisconsin
Current Conditions -  °F | °C
As of 12:56 PM on Monday 20 Oct 2014 (Local Time) from KMTW Reporting Station
Overcast Overcast  
Wind Chill: 53°   Ceiling: 5500
Heat Index: 53°   Visibility: 10mi
Dew Point: 45°   Wind: 12mph
Humidity: 74%   Direction: 330°NNW
Pressure: 29.86"   Gusts: NA
Location:  44.07°N, 87.88°W
Report Text: KMTW 201756Z AUTO 33010KT 10SM OVC055 12/07 A2986 RMK AO2 SLP138 T01170072 10122 20089 52005
Loading
Personal Weather Stations






























Interactive Weather Map
Tropical Storm Tracking
New forecast layout! Learn more

10-Day Weather Forecast

Advertisements
Track Severe Weather on mobile